sensor_id;sensor_type;location;lat;lon;timestamp;temperature;humidity
38938;DHT22;24727;51.974;20.868;2022-08-25T00:02:01;20.00;38.90
38938;DHT22;24727;51.974;20.868;2022-08-25T00:04:28;20.00;38.30
38938;DHT22;24727;51.974;20.868;2022-08-25T00:06:56;20.10;37.00
38938;DHT22;24727;51.974;20.868;2022-08-25T00:09:26;20.10;8.70
38938;DHT22;24727;51.974;20.868;2022-08-25T00:11:52;20.20;1.00
38938;DHT22;24727;51.974;20.868;2022-08-25T00:14:26;20.30;1.00
38938;DHT22;24727;51.974;20.868;2022-08-25T00:16:52;20.30;1.00
38938;DHT22;24727;51.974;20.868;2022-08-25T00:19:22;20.30;1.00
38938;DHT22;24727;51.974;20.868;2022-08-25T00:21:49;20.20;3.10
38938;DHT22;24727;51.974;20.868;2022-08-25T00:24:17;20.20;3.70
38938;DHT22;24727;51.974;20.868;2022-08-25T00:26:45;20.10;7.60
38938;DHT22;24727;51.974;20.868;2022-08-25T00:29:13;20.10;8.00
38938;DHT22;24727;51.974;20.868;2022-08-25T00:31:40;20.10;1.00
38938;DHT22;24727;51.974;20.868;2022-08-25T00:34:11;20.20;5.80
38938;DHT22;24727;51.974;20.868;2022-08-25T00:36:37;20.10;7.80
38938;DHT22;24727;51.974;20.868;2022-08-25T00:39:07;20.10;8.20
38938;DHT22;24727;51.974;20.868;2022-08-25T00:41:38;20.10;9.60
38938;DHT22;24727;51.974;20.868;2022-08-25T00:44:06;20.10;9.80
38938;DHT22;24727;51.974;20.868;2022-08-25T00:46:38;20.10;11.40
38938;DHT22;24727;51.974;20.868;2022-08-25T00:49:19;20.10;11.50
38938;DHT22;24727;51.974;20.868;2022-08-25T00:52:13;20.10;15.20
38938;DHT22;24727;51.974;20.868;2022-08-25T00:54:55;20.10;14.40
38938;DHT22;24727;51.974;20.868;2022-08-25T00:57:51;20.10;18.30
38938;DHT22;24727;51.974;20.868;2022-08-25T01:02:49;20.20;15.30
38938;DHT22;24727;51.974;20.868;2022-08-25T01:05:15;20.10;23.10
38938;DHT22;24727;51.974;20.868;2022-08-25T01:07:43;20.20;20.90
38938;DHT22;24727;51.974;20.868;2022-08-25T01:10:10;20.20;21.80
38938;DHT22;24727;51.974;20.868;2022-08-25T01:12:40;20.10;28.90
38938;DHT22;24727;51.974;20.868;2022-08-25T01:15:08;20.20;33.80
38938;DHT22;24727;51.974;20.868;2022-08-25T01:17:44;20.10;38.20
38938;DHT22;24727;51.974;20.868;2022-08-25T01:20:11;20.10;43.00
38938;DHT22;24727;51.974;20.868;2022-08-25T01:22:39;20.20;40.40
38938;DHT22;24727;51.974;20.868;2022-08-25T01:28:18;20.30;28.90
38938;DHT22;24727;51.974;20.868;2022-08-25T01:30:45;20.30;38.90
38938;DHT22;24727;51.974;20.868;2022-08-25T01:33:12;20.20;42.30
38938;DHT22;24727;51.974;20.868;2022-08-25T01:35:39;20.20;53.40
38938;DHT22;24727;51.974;20.868;2022-08-25T01:38:07;20.20;56.00
38938;DHT22;24727;51.974;20.868;2022-08-25T01:40:34;20.20;55.50
38938;DHT22;24727;51.974;20.868;2022-08-25T01:43:25;20.20;57.70
38938;DHT22;24727;51.974;20.868;2022-08-25T01:45:51;20.20;60.70
38938;DHT22;24727;51.974;20.868;2022-08-25T01:48:18;20.20;60.40
38938;DHT22;24727;51.974;20.868;2022-08-25T01:50:44;20.20;59.70
38938;DHT22;24727;51.974;20.868;2022-08-25T01:53:26;20.20;60.80
38938;DHT22;24727;51.974;20.868;2022-08-25T01:55:52;20.20;59.20
38938;DHT22;24727;51.974;20.868;2022-08-25T01:58:25;20.30;48.70
38938;DHT22;24727;51.974;20.868;2022-08-25T02:00:55;20.30;47.40
38938;DHT22;24727;51.974;20.868;2022-08-25T02:03:22;20.30;43.10
38938;DHT22;24727;51.974;20.868;2022-08-25T02:05:50;20.30;47.40
38938;DHT22;24727;51.974;20.868;2022-08-25T02:08:17;20.30;52.20
38938;DHT22;24727;51.974;20.868;2022-08-25T02:10:44;20.30;38.30
38938;DHT22;24727;51.974;20.868;2022-08-25T02:13:11;20.30;39.10
38938;DHT22;24727;51.974;20.868;2022-08-25T02:15:46;20.30;41.20
38938;DHT22;24727;51.974;20.868;2022-08-25T02:18:14;20.30;37.10
38938;DHT22;24727;51.974;20.868;2022-08-25T02:20:40;20.30;37.50
38938;DHT22;24727;51.974;20.868;2022-08-25T02:23:07;20.30;40.10
38938;DHT22;24727;51.974;20.868;2022-08-25T02:25:40;20.20;46.10
38938;DHT22;24727;51.974;20.868;2022-08-25T02:28:07;20.30;23.30
38938;DHT22;24727;51.974;20.868;2022-08-25T02:30:37;20.30;22.20
38938;DHT22;24727;51.974;20.868;2022-08-25T02:33:04;20.30;6.30
38938;DHT22;24727;51.974;20.868;2022-08-25T02:35:30;20.30;11.00
38938;DHT22;24727;51.974;20.868;2022-08-25T02:37:57;20.30;1.00
38938;DHT22;24727;51.974;20.868;2022-08-25T02:40:22;20.20;1.00
38938;DHT22;24727;51.974;20.868;2022-08-25T02:42:50;20.30;1.00
38938;DHT22;24727;51.974;20.868;2022-08-25T02:45:17;20.30;1.00
38938;DHT22;24727;51.974;20.868;2022-08-25T02:47:48;20.30;1.00
38938;DHT22;24727;51.974;20.868;2022-08-25T02:50:15;20.40;1.00
38938;DHT22;24727;51.974;20.868;2022-08-25T02:52:43;20.40;1.00
38938;DHT22;24727;51.974;20.868;2022-08-25T02:55:13;20.30;1.00
38938;DHT22;24727;51.974;20.868;2022-08-25T02:57:40;20.30;1.00
38938;DHT22;24727;51.974;20.868;2022-08-25T03:00:09;20.40;1.00
38938;DHT22;24727;51.974;20.868;2022-08-25T03:02:35;20.30;1.00
38938;DHT22;24727;51.974;20.868;2022-08-25T03:05:03;20.30;1.00
38938;DHT22;24727;51.974;20.868;2022-08-25T03:07:30;20.40;1.00
38938;DHT22;24727;51.974;20.868;2022-08-25T03:09:57;20.30;1.00
38938;DHT22;24727;51.974;20.868;2022-08-25T03:12:22;20.30;1.00
38938;DHT22;24727;51.974;20.868;2022-08-25T03:14:48;20.30;1.00
38938;DHT22;24727;51.974;20.868;2022-08-25T03:17:14;20.30;1.00
38938;DHT22;24727;51.974;20.868;2022-08-25T03:19:40;20.30;1.00
38938;DHT22;24727;51.974;20.868;2022-08-25T03:22:06;20.30;1.00
38938;DHT22;24727;51.974;20.868;2022-08-25T03:24:32;20.30;1.00
38938;DHT22;24727;51.974;20.868;2022-08-25T03:26:58;20.20;1.00
38938;DHT22;24727;51.974;20.868;2022-08-25T03:29:27;20.30;1.00
38938;DHT22;24727;51.974;20.868;2022-08-25T03:31:54;20.20;1.00
38938;DHT22;24727;51.974;20.868;2022-08-25T03:34:23;20.20;1.00
38938;DHT22;24727;51.974;20.868;2022-08-25T03:36:53;20.30;1.00
38938;DHT22;24727;51.974;20.868;2022-08-25T03:39:21;20.20;1.00
38938;DHT22;24727;51.974;20.868;2022-08-25T03:41:48;20.20;1.00
38938;DHT22;24727;51.974;20.868;2022-08-25T03:44:15;20.20;1.00
38938;DHT22;24727;51.974;20.868;2022-08-25T03:46:46;20.30;1.00
38938;DHT22;24727;51.974;20.868;2022-08-25T03:49:16;20.30;1.00
38938;DHT22;24727;51.974;20.868;2022-08-25T03:51:45;20.30;1.00
38938;DHT22;24727;51.974;20.868;2022-08-25T03:54:14;20.20;1.00
38938;DHT22;24727;51.974;20.868;2022-08-25T03:56:42;20.20;1.00
38938;DHT22;24727;51.974;20.868;2022-08-25T03:59:14;20.20;1.00
38938;DHT22;24727;51.974;20.868;2022-08-25T04:01:43;20.10;1.00
38938;DHT22;24727;51.974;20.868;2022-08-25T04:04:12;20.20;1.00
38938;DHT22;24727;51.974;20.868;2022-08-25T04:06:40;20.20;1.00
38938;DHT22;24727;51.974;20.868;2022-08-25T04:09:08;20.20;1.00
38938;DHT22;24727;51.974;20.868;2022-08-25T04:11:40;20.20;1.00
38938;DHT22;24727;51.974;20.868;2022-08-25T04:14:06;20.20;1.00
38938;DHT22;24727;51.974;20.868;2022-08-25T04:16:33;20.30;1.00
38938;DHT22;24727;51.974;20.868;2022-08-25T04:19:03;20.30;1.00
38938;DHT22;24727;51.974;20.868;2022-08-25T04:21:30;20.30;1.00
38938;DHT22;24727;51.974;20.868;2022-08-25T04:23:56;20.40;1.00
38938;DHT22;24727;51.974;20.868;2022-08-25T04:26:28;20.60;1.00
38938;DHT22;24727;51.974;20.868;2022-08-25T04:28:57;20.60;1.00
38938;DHT22;24727;51.974;20.868;2022-08-25T04:31:25;20.60;7.00
38938;DHT22;24727;51.974;20.868;2022-08-25T04:33:51;20.50;1.00
38938;DHT22;24727;51.974;20.868;2022-08-25T04:36:19;20.70;1.00
38938;DHT22;24727;51.974;20.868;2022-08-25T04:38:46;20.70;1.00
38938;DHT22;24727;51.974;20.868;2022-08-25T04:41:15;20.80;1.00
38938;DHT22;24727;51.974;20.868;2022-08-25T04:43:42;20.80;1.00
38938;DHT22;24727;51.974;20.868;2022-08-25T04:46:23;21.00;1.00
38938;DHT22;24727;51.974;20.868;2022-08-25T04:48:50;21.00;1.00
38938;DHT22;24727;51.974;20.868;2022-08-25T04:51:20;21.10;1.00
38938;DHT22;24727;51.974;20.868;2022-08-25T04:53:49;21.10;1.00
38938;DHT22;24727;51.974;20.868;2022-08-25T04:56:17;21.30;1.00
38938;DHT22;24727;51.974;20.868;2022-08-25T04:58:44;21.30;1.00
38938;DHT22;24727;51.974;20.868;2022-08-25T05:01:18;21.30;1.00
38938;DHT22;24727;51.974;20.868;2022-08-25T05:03:47;21.30;1.00
38938;DHT22;24727;51.974;20.868;2022-08-25T05:06:16;21.40;1.00
38938;DHT22;24727;51.974;20.868;2022-08-25T05:08:42;21.50;1.00
38938;DHT22;24727;51.974;20.868;2022-08-25T05:11:13;21.60;1.00
38938;DHT22;24727;51.974;20.868;2022-08-25T05:13:40;21.80;1.00
38938;DHT22;24727;51.974;20.868;2022-08-25T05:16:07;21.80;1.00
38938;DHT22;24727;51.974;20.868;2022-08-25T05:18:34;21.90;1.00
38938;DHT22;24727;51.974;20.868;2022-08-25T05:21:07;21.90;1.00
38938;DHT22;24727;51.974;20.868;2022-08-25T05:23:33;21.90;1.00
38938;DHT22;24727;51.974;20.868;2022-08-25T05:26:05;21.90;1.00
38938;DHT22;24727;51.974;20.868;2022-08-25T05:28:31;21.90;1.00
38938;DHT22;24727;51.974;20.868;2022-08-25T05:31:00;21.90;1.00
38938;DHT22;24727;51.974;20.868;2022-08-25T05:33:27;22.00;1.00
38938;DHT22;24727;51.974;20.868;2022-08-25T05:35:53;22.10;1.00
38938;DHT22;24727;51.974;20.868;2022-08-25T05:38:20;22.10;1.00
38938;DHT22;24727;51.974;20.868;2022-08-25T05:41:04;22.20;1.00
38938;DHT22;24727;51.974;20.868;2022-08-25T05:43:31;22.20;1.00
38938;DHT22;24727;51.974;20.868;2022-08-25T05:45:58;22.30;1.00
38938;DHT22;24727;51.974;20.868;2022-08-25T05:48:25;22.30;1.00
38938;DHT22;24727;51.974;20.868;2022-08-25T05:50:54;22.30;1.00
38938;DHT22;24727;51.974;20.868;2022-08-25T05:53:21;22.30;1.00
38938;DHT22;24727;51.974;20.868;2022-08-25T05:55:48;22.30;1.00
38938;DHT22;24727;51.974;20.868;2022-08-25T05:58:17;22.40;1.00
38938;DHT22;24727;51.974;20.868;2022-08-25T06:00:43;22.30;1.00
38938;DHT22;24727;51.974;20.868;2022-08-25T06:03:09;22.30;1.00
38938;DHT22;24727;51.974;20.868;2022-08-25T06:05:37;22.30;1.00
38938;DHT22;24727;51.974;20.868;2022-08-25T06:08:03;22.40;1.00
38938;DHT22;24727;51.974;20.868;2022-08-25T06:10:29;22.40;1.00
38938;DHT22;24727;51.974;20.868;2022-08-25T06:12:55;22.50;1.00
38938;DHT22;24727;51.974;20.868;2022-08-25T06:15:23;22.40;1.00
38938;DHT22;24727;51.974;20.868;2022-08-25T06:17:50;22.40;1.00
38938;DHT22;24727;51.974;20.868;2022-08-25T06:20:22;22.30;1.00
38938;DHT22;24727;51.974;20.868;2022-08-25T06:22:49;22.30;1.00
38938;DHT22;24727;51.974;20.868;2022-08-25T06:25:19;22.40;1.00
38938;DHT22;24727;51.974;20.868;2022-08-25T06:27:45;22.40;1.00
38938;DHT22;24727;51.974;20.868;2022-08-25T06:30:14;22.40;1.00
38938;DHT22;24727;51.974;20.868;2022-08-25T06:32:41;22.40;1.00
38938;DHT22;24727;51.974;20.868;2022-08-25T06:35:12;22.40;1.00
38938;DHT22;24727;51.974;20.868;2022-08-25T06:37:38;22.50;1.00
38938;DHT22;24727;51.974;20.868;2022-08-25T06:40:07;22.50;1.00
38938;DHT22;24727;51.974;20.868;2022-08-25T06:42:34;22.60;1.00
38938;DHT22;24727;51.974;20.868;2022-08-25T06:45:01;22.40;1.00
38938;DHT22;24727;51.974;20.868;2022-08-25T06:47:28;22.40;1.00
38938;DHT22;24727;51.974;20.868;2022-08-25T06:49:55;22.40;1.00
38938;DHT22;24727;51.974;20.868;2022-08-25T06:52:22;22.40;1.00
38938;DHT22;24727;51.974;20.868;2022-08-25T06:54:48;22.30;1.00
38938;DHT22;24727;51.974;20.868;2022-08-25T06:57:16;22.40;1.00
38938;DHT22;24727;51.974;20.868;2022-08-25T06:59:44;22.40;1.00
38938;DHT22;24727;51.974;20.868;2022-08-25T07:02:10;22.50;1.00
38938;DHT22;24727;51.974;20.868;2022-08-25T07:04:36;22.50;1.00
38938;DHT22;24727;51.974;20.868;2022-08-25T07:07:02;22.60;1.00
38938;DHT22;24727;51.974;20.868;2022-08-25T07:09:28;22.80;1.00
38938;DHT22;24727;51.974;20.868;2022-08-25T07:11:54;22.90;1.00
38938;DHT22;24727;51.974;20.868;2022-08-25T07:14:21;23.00;1.00
38938;DHT22;24727;51.974;20.868;2022-08-25T07:16:47;23.20;1.00
38938;DHT22;24727;51.974;20.868;2022-08-25T07:19:13;23.50;1.00
38938;DHT22;24727;51.974;20.868;2022-08-25T07:21:41;23.70;1.00
38938;DHT22;24727;51.974;20.868;2022-08-25T07:24:12;23.80;1.00
38938;DHT22;24727;51.974;20.868;2022-08-25T07:26:40;24.00;1.00
38938;DHT22;24727;51.974;20.868;2022-08-25T07:29:11;24.10;1.00
38938;DHT22;24727;51.974;20.868;2022-08-25T07:31:38;24.20;1.00
38938;DHT22;24727;51.974;20.868;2022-08-25T07:34:05;24.30;1.00
38938;DHT22;24727;51.974;20.868;2022-08-25T07:36:50;24.10;1.00
38938;DHT22;24727;51.974;20.868;2022-08-25T07:39:16;24.20;1.00
38938;DHT22;24727;51.974;20.868;2022-08-25T07:41:44;24.20;1.00
38938;DHT22;24727;51.974;20.868;2022-08-25T07:44:11;24.40;1.00
38938;DHT22;24727;51.974;20.868;2022-08-25T07:46:38;24.60;1.00
38938;DHT22;24727;51.974;20.868;2022-08-25T07:49:05;24.40;1.00
38938;DHT22;24727;51.974;20.868;2022-08-25T07:51:33;24.80;1.00
38938;DHT22;24727;51.974;20.868;2022-08-25T07:53:59;24.90;1.00
38938;DHT22;24727;51.974;20.868;2022-08-25T07:56:26;25.00;1.00
38938;DHT22;24727;51.974;20.868;2022-08-25T07:58:54;25.00;1.00
38938;DHT22;24727;51.974;20.868;2022-08-25T08:01:24;24.90;1.00
38938;DHT22;24727;51.974;20.868;2022-08-25T08:03:51;25.00;1.00
38938;DHT22;24727;51.974;20.868;2022-08-25T08:06:20;25.10;1.00
38938;DHT22;24727;51.974;20.868;2022-08-25T08:08:49;25.10;1.00
38938;DHT22;24727;51.974;20.868;2022-08-25T08:11:25;25.30;1.00
38938;DHT22;24727;51.974;20.868;2022-08-25T08:13:53;25.50;1.00
38938;DHT22;24727;51.974;20.868;2022-08-25T08:16:23;25.80;1.00
38938;DHT22;24727;51.974;20.868;2022-08-25T08:18:49;26.00;1.00
38938;DHT22;24727;51.974;20.868;2022-08-25T08:21:18;26.30;1.00
38938;DHT22;24727;51.974;20.868;2022-08-25T08:23:44;26.60;1.00
38938;DHT22;24727;51.974;20.868;2022-08-25T08:26:11;26.40;1.00
38938;DHT22;24727;51.974;20.868;2022-08-25T08:28:37;26.60;1.00
38938;DHT22;24727;51.974;20.868;2022-08-25T08:31:03;26.70;1.00
38938;DHT22;24727;51.974;20.868;2022-08-25T08:33:30;26.90;1.00
38938;DHT22;24727;51.974;20.868;2022-08-25T08:36:05;27.10;1.00
38938;DHT22;24727;51.974;20.868;2022-08-25T08:38:33;27.30;1.00
38938;DHT22;24727;51.974;20.868;2022-08-25T08:41:28;27.60;1.00
38938;DHT22;24727;51.974;20.868;2022-08-25T08:50:01;28.40;1.00
38938;DHT22;24727;51.974;20.868;2022-08-25T08:55:08;28.90;1.00
38938;DHT22;24727;51.974;20.868;2022-08-25T08:57:42;29.20;1.00
38938;DHT22;24727;51.974;20.868;2022-08-25T09:00:10;29.50;1.00
38938;DHT22;24727;51.974;20.868;2022-08-25T09:02:52;29.50;1.00
38938;DHT22;24727;51.974;20.868;2022-08-25T09:05:25;29.90;1.00
38938;DHT22;24727;51.974;20.868;2022-08-25T09:07:58;30.30;1.00
38938;DHT22;24727;51.974;20.868;2022-08-25T09:16:26;30.70;1.00
38938;DHT22;24727;51.974;20.868;2022-08-25T09:24:40;30.70;1.00
38938;DHT22;24727;51.974;20.868;2022-08-25T09:30:16;30.60;1.00
38938;DHT22;24727;51.974;20.868;2022-08-25T09:32:50;30.80;1.00
38938;DHT22;24727;51.974;20.868;2022-08-25T09:35:26;30.90;1.00
38938;DHT22;24727;51.974;20.868;2022-08-25T09:38:00;31.00;1.00
38938;DHT22;24727;51.974;20.868;2022-08-25T09:40:32;31.30;1.00
38938;DHT22;24727;51.974;20.868;2022-08-25T09:43:03;31.70;1.00
38938;DHT22;24727;51.974;20.868;2022-08-25T09:45:44;31.90;1.00
38938;DHT22;24727;51.974;20.868;2022-08-25T09:48:31;32.20;1.00
38938;DHT22;24727;51.974;20.868;2022-08-25T09:51:29;32.00;1.00
38938;DHT22;24727;51.974;20.868;2022-08-25T09:56:30;32.70;1.00
38938;DHT22;24727;51.974;20.868;2022-08-25T09:59:19;33.00;1.00
38938;DHT22;24727;51.974;20.868;2022-08-25T10:01:50;33.10;1.00
38938;DHT22;24727;51.974;20.868;2022-08-25T10:04:37;33.30;1.00
38938;DHT22;24727;51.974;20.868;2022-08-25T10:07:31;33.50;1.00
38938;DHT22;24727;51.974;20.868;2022-08-25T10:10:03;33.30;1.00
38938;DHT22;24727;51.974;20.868;2022-08-25T10:12:39;33.50;1.00
38938;DHT22;24727;51.974;20.868;2022-08-25T10:15:28;33.70;1.00
38938;DHT22;24727;51.974;20.868;2022-08-25T10:17:54;33.40;1.00
38938;DHT22;24727;51.974;20.868;2022-08-25T10:20:26;33.80;1.00
38938;DHT22;24727;51.974;20.868;2022-08-25T10:23:11;33.90;1.00
38938;DHT22;24727;51.974;20.868;2022-08-25T10:25:43;34.00;1.00
38938;DHT22;24727;51.974;20.868;2022-08-25T10:33:59;33.60;1.00
38938;DHT22;24727;51.974;20.868;2022-08-25T10:39:41;33.30;1.00
38938;DHT22;24727;51.974;20.868;2022-08-25T10:42:19;33.50;1.00
38938;DHT22;24727;51.974;20.868;2022-08-25T10:53:26;34.20;1.00
38938;DHT22;24727;51.974;20.868;2022-08-25T10:56:19;34.20;1.00
38938;DHT22;24727;51.974;20.868;2022-08-25T11:07:54;33.80;1.00
38938;DHT22;24727;51.974;20.868;2022-08-25T11:11:01;33.50;1.00
38938;DHT22;24727;51.974;20.868;2022-08-25T11:13:48;33.70;1.00
38938;DHT22;24727;51.974;20.868;2022-08-25T11:16:19;33.70;1.00
38938;DHT22;24727;51.974;20.868;2022-08-25T11:19:01;33.70;1.00
38938;DHT22;24727;51.974;20.868;2022-08-25T11:21:47;33.50;1.00
38938;DHT22;24727;51.974;20.868;2022-08-25T11:26:52;33.80;1.00
38938;DHT22;24727;51.974;20.868;2022-08-25T11:29:22;33.10;1.00
38938;DHT22;24727;51.974;20.868;2022-08-25T11:31:52;32.90;1.00
38938;DHT22;24727;51.974;20.868;2022-08-25T11:34:20;33.20;1.00
38938;DHT22;24727;51.974;20.868;2022-08-25T11:36:57;33.60;1.00
38938;DHT22;24727;51.974;20.868;2022-08-25T11:39:43;33.00;1.00
38938;DHT22;24727;51.974;20.868;2022-08-25T11:42:38;33.10;1.00
38938;DHT22;24727;51.974;20.868;2022-08-25T11:45:39;33.40;1.00
38938;DHT22;24727;51.974;20.868;2022-08-25T11:51:04;33.00;1.00
38938;DHT22;24727;51.974;20.868;2022-08-25T11:53:40;33.00;1.00
38938;DHT22;24727;51.974;20.868;2022-08-25T11:56:08;32.70;1.00
38938;DHT22;24727;51.974;20.868;2022-08-25T12:04:34;32.90;1.00
38938;DHT22;24727;51.974;20.868;2022-08-25T12:15:26;32.90;1.00
38938;DHT22;24727;51.974;20.868;2022-08-25T12:37:13;33.30;1.00
38938;DHT22;24727;51.974;20.868;2022-08-25T12:39:58;33.20;1.00
38938;DHT22;24727;51.974;20.868;2022-08-25T12:42:41;33.40;1.00
38938;DHT22;24727;51.974;20.868;2022-08-25T12:47:42;33.40;1.00
38938;DHT22;24727;51.974;20.868;2022-08-25T12:50:37;33.70;1.00
38938;DHT22;24727;51.974;20.868;2022-08-25T12:53:22;33.40;1.00
38938;DHT22;24727;51.974;20.868;2022-08-25T12:56:07;33.40;1.00
38938;DHT22;24727;51.974;20.868;2022-08-25T12:59:35;33.30;1.00
38938;DHT22;24727;51.974;20.868;2022-08-25T13:05:04;33.40;1.00
38938;DHT22;24727;51.974;20.868;2022-08-25T13:10:56;33.00;1.00
38938;DHT22;24727;51.974;20.868;2022-08-25T13:16:27;32.80;1.00
38938;DHT22;24727;51.974;20.868;2022-08-25T13:18:54;32.90;1.00
38938;DHT22;24727;51.974;20.868;2022-08-25T13:21:37;33.20;1.00
38938;DHT22;24727;51.974;20.868;2022-08-25T13:24:08;33.40;1.00
38938;DHT22;24727;51.974;20.868;2022-08-25T13:26:39;33.30;1.00
38938;DHT22;24727;51.974;20.868;2022-08-25T13:29:13;33.00;1.00
38938;DHT22;24727;51.974;20.868;2022-08-25T13:32:13;33.20;1.00
38938;DHT22;24727;51.974;20.868;2022-08-25T13:34:42;33.40;1.00
38938;DHT22;24727;51.974;20.868;2022-08-25T13:37:22;33.00;1.00
38938;DHT22;24727;51.974;20.868;2022-08-25T13:40:33;33.00;1.00
38938;DHT22;24727;51.974;20.868;2022-08-25T13:43:05;32.90;1.00
38938;DHT22;24727;51.974;20.868;2022-08-25T13:45:36;33.30;1.00
38938;DHT22;24727;51.974;20.868;2022-08-25T13:48:03;33.00;1.00
38938;DHT22;24727;51.974;20.868;2022-08-25T13:50:33;33.20;1.00
38938;DHT22;24727;51.974;20.868;2022-08-25T13:53:05;32.70;1.00
38938;DHT22;24727;51.974;20.868;2022-08-25T13:55:36;32.50;1.00
38938;DHT22;24727;51.974;20.868;2022-08-25T13:58:04;32.30;1.00
38938;DHT22;24727;51.974;20.868;2022-08-25T14:00:42;32.00;1.00
38938;DHT22;24727;51.974;20.868;2022-08-25T14:03:37;32.00;1.00
38938;DHT22;24727;51.974;20.868;2022-08-25T14:09:02;32.10;1.00
38938;DHT22;24727;51.974;20.868;2022-08-25T14:11:55;32.50;1.00
38938;DHT22;24727;51.974;20.868;2022-08-25T14:16:58;31.70;1.00
38938;DHT22;24727;51.974;20.868;2022-08-25T14:19:25;31.60;1.00
38938;DHT22;24727;51.974;20.868;2022-08-25T14:21:52;31.50;1.00
38938;DHT22;24727;51.974;20.868;2022-08-25T14:24:21;31.40;1.00
38938;DHT22;24727;51.974;20.868;2022-08-25T14:26:49;31.50;1.00
38938;DHT22;24727;51.974;20.868;2022-08-25T14:29:16;31.50;1.00
38938;DHT22;24727;51.974;20.868;2022-08-25T14:31:44;31.70;1.00
38938;DHT22;24727;51.974;20.868;2022-08-25T14:34:22;31.80;1.00
38938;DHT22;24727;51.974;20.868;2022-08-25T14:36:51;31.80;1.00
38938;DHT22;24727;51.974;20.868;2022-08-25T14:39:17;31.40;1.00
38938;DHT22;24727;51.974;20.868;2022-08-25T14:41:44;31.40;1.00
38938;DHT22;24727;51.974;20.868;2022-08-25T14:44:16;31.60;1.00
38938;DHT22;24727;51.974;20.868;2022-08-25T14:46:50;31.70;1.00
38938;DHT22;24727;51.974;20.868;2022-08-25T14:49:29;31.40;1.00
38938;DHT22;24727;51.974;20.868;2022-08-25T14:52:06;31.40;1.00
38938;DHT22;24727;51.974;20.868;2022-08-25T14:54:33;31.40;1.00
38938;DHT22;24727;51.974;20.868;2022-08-25T14:56:59;31.30;1.00
38938;DHT22;24727;51.974;20.868;2022-08-25T14:59:27;31.30;1.00
38938;DHT22;24727;51.974;20.868;2022-08-25T15:01:54;31.10;1.00
38938;DHT22;24727;51.974;20.868;2022-08-25T15:04:24;31.00;1.00
38938;DHT22;24727;51.974;20.868;2022-08-25T15:07:03;30.90;1.00
38938;DHT22;24727;51.974;20.868;2022-08-25T15:09:51;30.90;1.00
38938;DHT22;24727;51.974;20.868;2022-08-25T15:12:17;30.90;1.00
38938;DHT22;24727;51.974;20.868;2022-08-25T15:14:44;31.00;1.00
38938;DHT22;24727;51.974;20.868;2022-08-25T15:17:10;31.00;1.00
38938;DHT22;24727;51.974;20.868;2022-08-25T15:19:37;31.00;1.00
38938;DHT22;24727;51.974;20.868;2022-08-25T15:22:03;30.90;1.00
38938;DHT22;24727;51.974;20.868;2022-08-25T15:24:29;30.70;1.00
38938;DHT22;24727;51.974;20.868;2022-08-25T15:27:00;30.60;1.00
38938;DHT22;24727;51.974;20.868;2022-08-25T15:29:29;30.60;1.00
38938;DHT22;24727;51.974;20.868;2022-08-25T15:31:57;30.60;1.00
38938;DHT22;24727;51.974;20.868;2022-08-25T15:34:26;30.60;1.00
38938;DHT22;24727;51.974;20.868;2022-08-25T15:36:53;30.60;1.00
38938;DHT22;24727;51.974;20.868;2022-08-25T15:39:19;30.60;1.00
38938;DHT22;24727;51.974;20.868;2022-08-25T15:41:47;30.40;1.00
38938;DHT22;24727;51.974;20.868;2022-08-25T15:44:16;30.30;1.00
38938;DHT22;24727;51.974;20.868;2022-08-25T15:46:42;30.40;1.00
38938;DHT22;24727;51.974;20.868;2022-08-25T15:49:08;30.30;1.00
38938;DHT22;24727;51.974;20.868;2022-08-25T15:51:35;30.30;1.00
38938;DHT22;24727;51.974;20.868;2022-08-25T15:54:01;30.20;1.00
38938;DHT22;24727;51.974;20.868;2022-08-25T15:56:28;30.20;1.00
38938;DHT22;24727;51.974;20.868;2022-08-25T15:58:54;30.10;1.00
38938;DHT22;24727;51.974;20.868;2022-08-25T16:01:26;30.20;1.00
38938;DHT22;24727;51.974;20.868;2022-08-25T16:03:52;30.10;1.00
38938;DHT22;24727;51.974;20.868;2022-08-25T16:06:18;30.00;1.00
38938;DHT22;24727;51.974;20.868;2022-08-25T16:08:45;30.00;1.00
38938;DHT22;24727;51.974;20.868;2022-08-25T16:11:28;30.00;1.00
38938;DHT22;24727;51.974;20.868;2022-08-25T16:13:55;30.00;1.00
38938;DHT22;24727;51.974;20.868;2022-08-25T16:16:23;29.90;1.00
38938;DHT22;24727;51.974;20.868;2022-08-25T16:18:50;29.70;1.00
38938;DHT22;24727;51.974;20.868;2022-08-25T16:21:22;29.70;1.00
38938;DHT22;24727;51.974;20.868;2022-08-25T16:23:52;29.70;1.00
38938;DHT22;24727;51.974;20.868;2022-08-25T16:26:18;29.70;1.00
38938;DHT22;24727;51.974;20.868;2022-08-25T16:28:44;29.70;1.00
38938;DHT22;24727;51.974;20.868;2022-08-25T16:31:16;29.70;1.00
38938;DHT22;24727;51.974;20.868;2022-08-25T16:33:42;29.60;1.00
38938;DHT22;24727;51.974;20.868;2022-08-25T16:36:12;29.50;1.00
38938;DHT22;24727;51.974;20.868;2022-08-25T16:38:40;29.40;1.00
38938;DHT22;24727;51.974;20.868;2022-08-25T16:41:13;29.40;1.00
38938;DHT22;24727;51.974;20.868;2022-08-25T16:43:45;29.30;1.00
38938;DHT22;24727;51.974;20.868;2022-08-25T16:46:15;29.30;1.00
38938;DHT22;24727;51.974;20.868;2022-08-25T16:48:42;29.10;1.00
38938;DHT22;24727;51.974;20.868;2022-08-25T16:51:17;29.10;1.00
38938;DHT22;24727;51.974;20.868;2022-08-25T16:53:43;29.00;1.00
38938;DHT22;24727;51.974;20.868;2022-08-25T16:56:28;28.90;1.00
38938;DHT22;24727;51.974;20.868;2022-08-25T16:58:58;28.80;1.00
38938;DHT22;24727;51.974;20.868;2022-08-25T17:01:26;28.70;1.00
38938;DHT22;24727;51.974;20.868;2022-08-25T17:03:54;28.60;1.00
38938;DHT22;24727;51.974;20.868;2022-08-25T17:06:22;28.50;1.00
38938;DHT22;24727;51.974;20.868;2022-08-25T17:08:48;28.40;1.00
38938;DHT22;24727;51.974;20.868;2022-08-25T17:11:27;28.20;1.00
38938;DHT22;24727;51.974;20.868;2022-08-25T17:13:58;28.10;1.00
38938;DHT22;24727;51.974;20.868;2022-08-25T17:16:28;28.00;1.00
38938;DHT22;24727;51.974;20.868;2022-08-25T17:18:56;27.90;1.00
38938;DHT22;24727;51.974;20.868;2022-08-25T17:21:23;27.80;1.00
38938;DHT22;24727;51.974;20.868;2022-08-25T17:23:54;27.70;1.00
38938;DHT22;24727;51.974;20.868;2022-08-25T17:26:23;27.60;1.00
38938;DHT22;24727;51.974;20.868;2022-08-25T17:28:50;27.50;1.00
38938;DHT22;24727;51.974;20.868;2022-08-25T17:31:16;27.40;1.00
38938;DHT22;24727;51.974;20.868;2022-08-25T17:33:46;27.30;1.00
38938;DHT22;24727;51.974;20.868;2022-08-25T17:36:18;27.20;1.00
38938;DHT22;24727;51.974;20.868;2022-08-25T17:38:45;27.10;1.00
38938;DHT22;24727;51.974;20.868;2022-08-25T17:41:12;27.00;1.00
38938;DHT22;24727;51.974;20.868;2022-08-25T17:43:40;26.90;1.00
38938;DHT22;24727;51.974;20.868;2022-08-25T17:46:09;26.70;1.00
38938;DHT22;24727;51.974;20.868;2022-08-25T17:48:36;26.70;1.00